No particular awareness of the weather is required.    There are no Weather-warnings


Meteo18 Weather Cam more information Meteo18 Weather Cam


Thunder radar more information blitzortung!


Rain radar more information rain snow radar


Visit our other weather sites:

Template documentation
and downloads

And another site



Weather Underground History page Text

Daily Summary for June 30, 2017 Units:  English    Metric   Both
« Previous Day
Next Day »
Daily Weekly Monthly Yearly Custom
  High: Low: Average:
Temperature: TemperatureC °F 12.0 °F 13.8 °F
Dew Point: DewpointC °F 10.3 °F 11.9 °F
Humidity: Humidity % 79 % 88 %
Wind Speed: WindSpeedKMH mph 0.0 mph 8.8 mph
Wind Gust: WindSpeedGustKMH mph - -
Wind:- - SW
Pressure: PressurehPa in 1005.6 in -
Precipitation: 10.7 in    
Historical Graphs
 
 
Tabular Data for June 30, 2017
Time Temperature Dew Point Pressure Wind Wind Speed Wind Gust Humidity Rainfall Rate (Hourly)
TemperatureC °F DewpointC °F PressurehPa in Calm     Humidity % HourlyPrecipMM in
00:02 14.2 °F 11.4 °F 1006.0 in SSW 9.7 mph 25.7 mph 83 % 0.0 in
00:12 14.2 °F 11.2 °F 1006.0 in SSW 16.1 mph 22.5 mph 82 % 0.0 in
00:17 14.0 °F 11.2 °F 1006.0 in SSW 11.3 mph 25.7 mph 83 % 0.0 in
00:22 13.9 °F 11.1 °F 1006.0 in SW 12.9 mph 25.7 mph 83 % 0.0 in
00:32 13.7 °F 10.9 °F 1006.0 in South 9.7 mph 25.7 mph 83 % 0.0 in
00:42 13.2 °F 10.7 °F 1006.3 in SSW 6.4 mph 25.7 mph 85 % 0.0 in
00:52 12.9 °F 10.8 °F 1006.3 in SSW 3.2 mph 19.3 mph 87 % 0.0 in
00:57 12.9 °F 10.8 °F 1006.3 in SW 9.7 mph 12.9 mph 87 % 0.0 in
01:02 12.9 °F 10.8 °F 1006.3 in SSW 8.0 mph 12.9 mph 87 % 0.0 in
01:07 12.9 °F 10.8 °F 1006.3 in SSW 12.9 mph 16.1 mph 87 % 0.0 in
01:12 12.9 °F 10.8 °F 1006.0 in SSW 4.8 mph 16.1 mph 87 % 0.0 in
01:17 12.8 °F 10.7 °F 1006.3 in SSW 3.2 mph 16.1 mph 87 % 0.0 in
01:22 12.7 °F 10.6 °F 1006.3 in SW 4.8 mph 16.1 mph 87 % 0.0 in
01:32 12.6 °F 10.5 °F 1006.3 in South 3.2 mph 16.1 mph 87 % 0.0 in
01:37 12.5 °F 10.6 °F 1006.3 in Calm   12.9 mph 88 % 0.0 in
01:42 12.3 °F 10.4 °F 1006.7 in Calm   12.9 mph 88 % 0.0 in
01:47 12.2 °F 10.4 °F 1006.7 in SW 4.8 mph 8.0 mph 89 % 0.0 in
01:52 12.2 °F 10.4 °F 1006.7 in SE 3.2 mph 8.0 mph 89 % 0.0 in
01:57 12.2 °F 10.4 °F 1006.7 in South 3.2 mph 8.0 mph 89 % 0.0 in
02:02 12.3 °F 10.5 °F 1006.7 in SSW 1.6 mph 8.0 mph 89 % 0.0 in
02:12 12.3 °F 10.5 °F 1006.7 in SSW 1.6 mph 11.3 mph 89 % 0.0 in
02:17 12.2 °F 10.4 °F 1006.7 in SSW 1.6 mph 11.3 mph 89 % 0.0 in
02:22 12.1 °F 10.3 °F 1006.3 in SW 3.2 mph 9.7 mph 89 % 0.0 in
02:27 12.0 °F 10.4 °F 1006.3 in SSW 3.2 mph 8.0 mph 90 % 0.0 in
02:32 12.2 °F 10.6 °F 1006.3 in ESE 9.7 mph 9.7 mph 90 % 0.0 in
02:37 12.3 °F 10.5 °F 1006.3 in SSW 3.2 mph 14.5 mph 89 % 0.0 in
02:42 12.4 °F 10.5 °F 1006.3 in SSW 9.7 mph 14.5 mph 88 % 0.0 in
02:47 12.6 °F 10.7 °F 1006.3 in SSW 6.4 mph 14.5 mph 88 % 0.0 in
02:52 12.6 °F 10.7 °F 1006.3 in SSW 3.2 mph 14.5 mph 88 % 0.0 in
02:57 12.6 °F 10.7 °F 1006.3 in South 3.2 mph 16.1 mph 88 % 0.0 in
03:02 12.6 °F 10.5 °F 1006.3 in South 4.8 mph 16.1 mph 87 % 0.0 in
03:12 12.6 °F 10.7 °F 1006.3 in SSW 4.8 mph 16.1 mph 88 % 0.0 in
03:17 12.5 °F 10.6 °F 1006.3 in SSW 6.4 mph 12.9 mph 88 % 0.0 in
03:22 12.4 °F 10.5 °F 1006.0 in SSW 6.4 mph 12.9 mph 88 % 0.0 in
03:27 12.4 °F 10.5 °F 1006.0 in SSE 1.6 mph 11.3 mph 88 % 0.0 in
03:32 12.4 °F 10.5 °F 1006.0 in SSW 6.4 mph 11.3 mph 88 % 0.0 in
03:42 12.6 °F 10.7 °F 1006.0 in South 4.8 mph 11.3 mph 88 % 0.0 in
03:47 12.6 °F 10.7 °F 1006.0 in SE 3.2 mph 11.3 mph 88 % 0.0 in
03:52 12.7 °F 10.6 °F 1006.0 in SSW 1.6 mph 14.5 mph 87 % 0.0 in
03:57 12.6 °F 10.5 °F 1006.0 in SSW 8.0 mph 14.5 mph 87 % 0.0 in
04:02 12.6 °F 10.5 °F 1006.0 in SSW 4.8 mph 14.5 mph 87 % 0.0 in
04:12 12.6 °F 10.5 °F 1005.6 in SW 9.7 mph 14.5 mph 87 % 0.0 in
04:17 12.7 °F 10.6 °F 1005.6 in South 4.8 mph 22.5 mph 87 % 0.0 in
04:22 12.7 °F 10.6 °F 1005.6 in SSE 6.4 mph 22.5 mph 87 % 0.0 in
04:32 13.1 °F 11.0 °F 1005.6 in SSW 6.4 mph 17.7 mph 87 % 0.0 in
04:37 13.1 °F 11.0 °F 1005.6 in SSW 8.0 mph 22.5 mph 87 % 0.0 in
04:42 13.1 °F 11.2 °F 1005.6 in South 3.2 mph 22.5 mph 88 % 0.0 in
04:47 13.0 °F 11.1 °F 1005.6 in South 3.2 mph 22.5 mph 88 % 0.0 in
04:52 12.9 °F 11.0 °F 1005.6 in SW 4.8 mph 19.3 mph 88 % 0.0 in
04:57 12.9 °F 11.0 °F 1005.6 in SSW 4.8 mph 19.3 mph 88 % 0.0 in
05:02 12.8 °F 10.9 °F 1005.6 in SW 6.4 mph 17.7 mph 88 % 0.0 in
05:12 12.8 °F 11.0 °F 1005.6 in SSW 9.7 mph 17.7 mph 89 % 0.0 in
05:22 12.7 °F 11.1 °F 1005.6 in SSW 8.0 mph 14.5 mph 90 % 0.0 in
05:32 12.6 °F 11.2 °F 1005.6 in SE 6.4 mph 14.5 mph 91 % 0.5 in
05:42 12.4 °F 11.1 °F 1005.6 in SSW 8.0 mph 19.3 mph 92 % 0.8 in
05:47 12.4 °F 11.1 °F 1005.6 in SSE 8.0 mph 19.3 mph 92 % 0.8 in
05:52 12.3 °F 11.0 °F 1005.6 in SW 4.8 mph 17.7 mph 92 % 1.3 in
06:02 12.3 °F 11.2 °F 1005.6 in ESE 4.8 mph 14.5 mph 93 % 1.5 in
06:07 12.2 °F 11.1 °F 1005.6 in SSE 4.8 mph 14.5 mph 93 % 1.5 in
06:17 12.2 °F 11.3 °F 1005.6 in SW 9.7 mph 16.1 mph 94 % 2.0 in
06:22 12.2 °F 11.3 °F 1005.6 in SSE 8.0 mph 16.1 mph 94 % 1.8 in
06:27 12.2 °F 11.3 °F 1005.6 in SSW 4.8 mph 17.7 mph 94 % 1.8 in
06:32 12.2 °F 11.3 °F 1005.6 in South 9.7 mph 17.7 mph 94 % 1.8 in
06:37 12.2 °F 11.3 °F 1005.6 in SSW 6.4 mph 17.7 mph 94 % 1.5 in
06:42 12.2 °F 11.3 °F 1005.6 in SSE 4.8 mph 16.1 mph 94 % 1.5 in
06:47 12.3 °F 11.4 °F 1005.6 in SW 11.3 mph 16.1 mph 94 % 1.5 in
06:52 12.3 °F 11.4 °F 1005.6 in SSW 6.4 mph 17.7 mph 94 % 0.5 in
07:02 12.4 °F 11.5 °F 1005.6 in SSE 8.0 mph 17.7 mph 94 % 0.5 in
07:07 12.5 °F 11.6 °F 1005.6 in South 8.0 mph 17.7 mph 94 % 0.5 in
07:17 12.6 °F 11.7 °F 1005.6 in SSW 9.7 mph 19.3 mph 94 % 0.0 in
07:22 12.6 °F 11.7 °F 1005.6 in South 11.3 mph 16.1 mph 94 % 0.0 in
07:32 12.6 °F 11.7 °F 1005.6 in SSW 3.2 mph 12.9 mph 94 % 0.3 in
07:37 12.6 °F 11.7 °F 1005.6 in SW 8.0 mph 12.9 mph 94 % 0.3 in
07:42 12.7 °F 11.8 °F 1005.6 in South 8.0 mph 16.1 mph 94 % 0.3 in
07:47 12.7 °F 11.8 °F 1005.6 in SSW 4.8 mph 16.1 mph 94 % 0.3 in
07:52 12.7 °F 11.6 °F 1005.6 in SSW 12.9 mph 16.1 mph 93 % 0.3 in
08:02 12.8 °F 11.7 °F 1005.6 in SW 4.8 mph 19.3 mph 93 % 0.3 in
08:07 12.9 °F 11.8 °F 1005.6 in SW 1.6 mph 19.3 mph 93 % 0.3 in
08:12 12.9 °F 11.8 °F 1005.6 in South 6.4 mph 17.7 mph 93 % 0.3 in
08:17 12.9 °F 11.8 °F 1006.0 in SSE 4.8 mph 17.7 mph 93 % 0.3 in
08:22 12.9 °F 11.8 °F 1006.0 in SSE 11.3 mph 19.3 mph 93 % 0.3 in
08:32 12.8 °F 11.7 °F 1006.0 in SSW 4.8 mph 19.3 mph 93 % 0.5 in
08:42 12.8 °F 11.7 °F 1006.0 in WSW 8.0 mph 17.7 mph 93 % 0.8 in
08:47 12.7 °F 11.6 °F 1006.0 in SE 4.8 mph 17.7 mph 93 % 0.8 in
08:52 12.7 °F 11.6 °F 1006.0 in WSW 4.8 mph 19.3 mph 93 % 1.0 in
09:02 12.7 °F 11.8 °F 1006.3 in South 4.8 mph 19.3 mph 94 % 1.5 in
09:12 12.8 °F 11.9 °F 1006.3 in SSW 6.4 mph 19.3 mph 94 % 1.5 in
09:22 12.8 °F 11.9 °F 1006.3 in SSE 9.7 mph 16.1 mph 94 % 1.5 in
09:32 12.9 °F 12.0 °F 1006.3 in SE 4.8 mph 16.1 mph 94 % 1.5 in
09:37 12.9 °F 12.0 °F 1006.3 in SE 11.3 mph 16.1 mph 94 % 1.5 in
09:42 12.9 °F 12.0 °F 1006.3 in ESE 9.7 mph 19.3 mph 94 % 1.3 in
09:47 12.9 °F 12.0 °F 1006.3 in South 11.3 mph 19.3 mph 94 % 1.3 in
09:52 12.9 °F 12.0 °F 1006.3 in SSW 1.6 mph 19.3 mph 94 % 1.0 in
10:02 12.9 °F 12.0 °F 1006.3 in SSW 14.5 mph 17.7 mph 94 % 1.0 in
10:12 12.9 °F 12.0 °F 1006.7 in SSW 11.3 mph 19.3 mph 94 % 1.5 in
10:17 12.9 °F 12.1 °F 1006.7 in SSW 9.7 mph 19.3 mph 95 % 1.5 in
10:27 13.1 °F 12.3 °F 1006.7 in SSW 9.7 mph 19.3 mph 95 % 1.3 in
10:32 13.2 °F 12.4 °F 1006.7 in SW 12.9 mph 24.1 mph 95 % 1.0 in
10:42 13.7 °F 12.9 °F 1006.7 in SW 20.9 mph 24.1 mph 95 % 0.8 in
10:47 13.9 °F 12.9 °F 1006.7 in SW 14.5 mph 24.1 mph 94 % 0.8 in
10:52 14.0 °F 12.9 °F 1006.7 in SSW 14.5 mph 24.1 mph 93 % 0.5 in
10:57 14.1 °F 13.0 °F 1006.7 in South 9.7 mph 24.1 mph 93 % 0.5 in
11:02 14.1 °F 13.0 °F 1006.7 in SW 16.1 mph 24.1 mph 93 % 0.5 in
11:12 14.1 °F 13.0 °F 1006.7 in WSW 11.3 mph 24.1 mph 93 % 0.0 in
11:17 14.1 °F 13.0 °F 1006.7 in SSW 9.7 mph 24.1 mph 93 % 0.0 in
11:22 14.2 °F 13.1 °F 1006.7 in SW 11.3 mph 22.5 mph 93 % 0.0 in
11:32 14.6 °F 13.3 °F 1006.7 in SW 14.5 mph 30.6 mph 92 % 0.0 in
11:37 14.7 °F 13.1 °F 1006.7 in WSW 17.7 mph 30.6 mph 90 % 0.0 in
11:42 14.7 °F 13.2 °F 1006.7 in SW 17.7 mph 32.2 mph 91 % 0.0 in
11:47 14.7 °F 13.1 °F 1006.7 in WSW 12.9 mph 32.2 mph 90 % 0.0 in
11:52 14.8 °F 13.2 °F 1007.0 in WSW 8.0 mph 33.8 mph 90 % 0.0 in
11:57 14.7 °F 13.1 °F 1007.0 in South 24.1 mph 33.8 mph 90 % 0.0 in
12:02 14.4 °F 12.9 °F 1007.0 in SSW 4.8 mph 25.7 mph 91 % 0.3 in
12:12 14.1 °F 13.0 °F 1007.0 in SW 25.7 mph 25.7 mph 93 % 2.8 in
12:17 14.2 °F 13.2 °F 1007.0 in WSW 14.5 mph 24.1 mph 94 % 2.8 in
12:22 14.4 °F 13.4 °F 1007.0 in SW 16.1 mph 24.1 mph 94 % 3.3 in
12:32 14.8 °F 13.3 °F 1007.0 in SSW 11.3 mph 25.7 mph 91 % 3.3 in
12:37 15.0 °F 13.7 °F 1007.0 in South 11.3 mph 25.7 mph 92 % 3.3 in
12:42 14.8 °F 13.3 °F 1007.0 in SW 17.7 mph 25.7 mph 91 % 3.3 in
12:47 14.3 °F 12.9 °F 1007.3 in SW 20.9 mph 25.7 mph 91 % 3.3 in
12:52 14.1 °F 12.8 °F 1007.3 in WSW 16.1 mph 25.7 mph 92 % 3.8 in
12:57 14.1 °F 12.8 °F 1007.3 in WSW 9.7 mph 33.8 mph 92 % 3.8 in
13:02 14.2 °F 12.8 °F 1007.3 in West 12.9 mph 33.8 mph 91 % 3.8 in
13:12 14.8 °F 13.5 °F 1007.3 in SW 12.9 mph 29.0 mph 92 % 2.3 in
13:17 15.0 °F 13.4 °F 1007.3 in West 4.8 mph 29.0 mph 90 % 2.3 in
13:22 15.6 °F 14.1 °F 1007.3 in South 6.4 mph 25.7 mph 91 % 0.5 in
13:32 16.1 °F 13.8 °F 1007.3 in WSW 6.4 mph 29.0 mph 86 % 0.5 in
13:37 15.5 °F 12.8 °F 1007.7 in SW 12.9 mph 29.0 mph 84 % 0.5 in
13:42 14.9 °F 12.8 °F 1007.3 in West 16.1 mph 27.4 mph 87 % 0.5 in
13:52 14.7 °F 13.1 °F 1007.7 in WSW 4.8 mph 24.1 mph 90 % 0.0 in
13:57 14.9 °F 13.4 °F 1007.3 in WSW 11.3 mph 24.1 mph 91 % 0.0 in
14:02 15.2 °F 13.6 °F 1007.3 in WSW 14.5 mph 16.1 mph 90 % 0.0 in
14:12 15.7 °F 13.4 °F 1007.3 in West 6.4 mph 19.3 mph 86 % 0.0 in
14:17 15.1 °F 12.6 °F 1007.3 in West 9.7 mph 19.3 mph 85 % 0.0 in
14:22 14.8 °F 12.8 °F 1007.3 in West 20.9 mph 40.2 mph 88 % 0.0 in
14:32 14.4 °F 12.9 °F 1007.7 in West 6.4 mph 37.0 mph 91 % 0.3 in
14:42 15.3 °F 13.7 °F 1007.7 in WSW 12.9 mph 19.3 mph 90 % 0.3 in
14:52 16.1 °F 13.9 °F 1007.7 in West 11.3 mph 29.0 mph 87 % 0.3 in
14:57 16.1 °F 13.4 °F 1007.7 in WSW 11.3 mph 29.0 mph 84 % 0.3 in
15:02 15.9 °F 13.0 °F 1007.7 in WSW 8.0 mph 30.6 mph 83 % 0.3 in
15:12 15.2 °F 13.0 °F 1008.0 in WSW 12.9 mph 25.7 mph 87 % 0.5 in
15:22 14.9 °F 13.1 °F 1007.7 in SW 9.7 mph 20.9 mph 89 % 1.0 in
15:32 15.0 °F 13.4 °F 1007.7 in SSW 4.8 mph 22.5 mph 90 % 1.3 in
15:37 15.4 °F 13.6 °F 1007.7 in SW 9.7 mph 22.5 mph 89 % 1.3 in
15:42 16.0 °F 13.8 °F 1007.7 in WSW 12.9 mph 22.5 mph 87 % 1.3 in
15:52 16.6 °F 14.1 °F 1007.7 in SW 11.3 mph 20.9 mph 85 % 1.3 in
15:57 16.4 °F 13.5 °F 1008.0 in SSW 16.1 mph 24.1 mph 83 % 1.3 in
16:02 16.3 °F 13.8 °F 1008.0 in West 6.4 mph 27.4 mph 85 % 1.3 in
16:07 16.0 °F 13.7 °F 1008.0 in NW 6.4 mph 27.4 mph 86 % 1.3 in
16:12 15.8 °F 13.3 °F 1008.0 in WSW 9.7 mph 27.4 mph 85 % 1.3 in
16:17 15.4 °F 13.2 °F 1008.0 in SW 12.9 mph 25.7 mph 87 % 0.5 in
16:22 15.3 °F 13.3 °F 1008.0 in WSW 6.4 mph 22.5 mph 88 % 0.8 in
16:27 15.7 °F 13.7 °F 1008.0 in West 9.7 mph 20.9 mph 88 % 0.5 in
16:32 16.2 °F 13.9 °F 1008.0 in WSW 8.0 mph 20.9 mph 86 % 0.5 in
16:42 16.2 °F 13.3 °F 1008.0 in West 8.0 mph 24.1 mph 83 % 0.5 in
16:52 16.6 °F 13.5 °F 1008.0 in West 9.7 mph 27.4 mph 82 % 0.5 in
16:57 17.0 °F 14.3 °F 1008.0 in WNW 17.7 mph 20.9 mph 84 % 0.5 in
17:02 17.1 °F 13.4 °F 1008.4 in WSW 12.9 mph 25.7 mph 79 % 0.5 in
17:12 15.3 °F 11.7 °F 1008.4 in West 24.1 mph 27.4 mph 79 % 0.5 in
17:17 14.7 °F 11.5 °F 1008.7 in WNW 14.5 mph 33.8 mph 81 % 0.5 in
17:22 14.3 °F 11.5 °F 1008.7 in West 9.7 mph 33.8 mph 83 % 0.0 in
17:27 14.1 °F 11.6 °F 1008.7 in West 6.4 mph 33.8 mph 85 % 0.0 in
17:32 13.9 °F 11.6 °F 1008.7 in WNW 6.4 mph 30.6 mph 86 % 0.0 in
17:42 14.3 °F 12.3 °F 1008.7 in WNW 9.7 mph 25.7 mph 88 % 0.0 in
17:47 14.7 °F 12.6 °F 1008.7 in NW 6.4 mph 16.1 mph 87 % 0.0 in
17:52 15.4 °F 12.9 °F 1008.7 in WSW 14.5 mph 16.1 mph 85 % 0.0 in
17:57 15.8 °F 12.7 °F 1008.7 in West 22.5 mph 22.5 mph 82 % 0.0 in
18:07 16.2 °F 13.1 °F 1008.7 in West 9.7 mph 27.4 mph 82 % 0.0 in
18:12 16.3 °F 13.2 °F 1008.7 in West 6.4 mph 27.4 mph 82 % 0.0 in
18:17 16.3 °F 13.0 °F 1008.7 in West 11.3 mph 22.5 mph 81 % 0.0 in
18:22 16.4 °F 13.1 °F 1008.7 in WSW 17.7 mph 22.5 mph 81 % 0.0 in
18:27 16.3 °F 12.8 °F 1008.7 in NW 12.9 mph 22.5 mph 80 % 0.0 in
18:32 16.1 °F 12.5 °F 1009.0 in West 12.9 mph 22.5 mph 79 % 0.0 in
18:42 15.9 °F 12.8 °F 1009.0 in WSW 19.3 mph 30.6 mph 82 % 0.0 in
18:47 16.0 °F 12.7 °F 1009.4 in West 16.1 mph 30.6 mph 81 % 0.0 in
18:57 15.8 °F 12.2 °F 1009.4 in WNW 12.9 mph 27.4 mph 79 % 0.0 in
19:02 15.8 °F 12.5 °F 1009.4 in West 8.0 mph 29.0 mph 81 % 0.0 in
19:12 15.7 °F 12.1 °F 1009.4 in South 4.8 mph 29.0 mph 79 % 0.0 in
19:17 15.6 °F 12.0 °F 1009.4 in SW 14.5 mph 24.1 mph 79 % 0.0 in
19:22 15.7 °F 12.3 °F 1009.7 in WSW 8.0 mph 24.1 mph 80 % 0.0 in
19:32 15.6 °F 12.4 °F 1009.7 in SSE 8.0 mph 24.1 mph 81 % 0.0 in
19:42 15.4 °F 12.3 °F 1010.0 in SW 9.7 mph 19.3 mph 82 % 0.0 in
19:47 15.3 °F 12.2 °F 1010.0 in West 12.9 mph 20.9 mph 82 % 0.0 in
19:52 15.2 °F 12.3 °F 1010.0 in WSW 8.0 mph 20.9 mph 83 % 0.0 in
19:57 15.1 °F 12.2 °F 1010.0 in WSW 14.5 mph 20.9 mph 83 % 0.0 in
20:02 15.2 °F 12.3 °F 1010.0 in West 4.8 mph 22.5 mph 83 % 0.0 in
20:12 15.3 °F 12.2 °F 1010.0 in West 11.3 mph 22.5 mph 82 % 0.0 in
20:17 15.3 °F 12.2 °F 1010.4 in WSW 9.7 mph 20.9 mph 82 % 0.0 in
20:22 15.3 °F 12.2 °F 1010.4 in WSW 8.0 mph 20.9 mph 82 % 0.0 in
20:32 15.3 °F 12.2 °F 1010.4 in WSW 8.0 mph 19.3 mph 82 % 0.0 in
20:37 15.3 °F 12.2 °F 1010.4 in WSW 14.5 mph 20.9 mph 82 % 0.0 in
20:42 15.2 °F 12.1 °F 1010.7 in WSW 6.4 mph 20.9 mph 82 % 0.0 in
20:47 15.2 °F 12.1 °F 1010.7 in WSW 16.1 mph 19.3 mph 82 % 0.0 in
20:52 15.1 °F 12.0 °F 1010.7 in SW 4.8 mph 16.1 mph 82 % 0.0 in
21:02 15.0 °F 12.1 °F 1010.7 in West 6.4 mph 17.7 mph 83 % 0.0 in
21:12 14.5 °F 12.0 °F 1011.1 in WSW 12.9 mph 16.1 mph 85 % 0.0 in
21:17 14.0 °F 11.7 °F 1011.1 in West 9.7 mph 25.7 mph 86 % 0.0 in
21:22 13.7 °F 11.7 °F 1011.1 in SW 9.7 mph 27.4 mph 88 % 0.0 in
21:32 13.3 °F 11.7 °F 1011.4 in WSW 9.7 mph 29.0 mph 90 % 0.0 in
21:42 13.3 °F 11.7 °F 1011.4 in WSW 11.3 mph 19.3 mph 90 % 0.0 in
21:52 13.3 °F 11.7 °F 1011.7 in SSW 3.2 mph 14.5 mph 90 % 0.0 in
21:57 13.3 °F 11.7 °F 1011.4 in SSW 6.4 mph 12.9 mph 90 % 0.0 in
22:02 13.3 °F 11.7 °F 1011.7 in WSW 6.4 mph 9.7 mph 90 % 0.0 in
22:12 13.3 °F 11.7 °F 1011.7 in SW 4.8 mph 9.7 mph 90 % 0.0 in
22:17 13.4 °F 11.8 °F 1011.7 in SW 4.8 mph 11.3 mph 90 % 0.0 in
22:22 13.4 °F 11.8 °F 1012.1 in West 8.0 mph 11.3 mph 90 % 0.0 in
22:27 13.4 °F 11.8 °F 1012.1 in SW 6.4 mph 11.3 mph 90 % 0.0 in
22:32 13.4 °F 12.0 °F 1012.1 in SW 3.2 mph 12.9 mph 91 % 0.0 in
22:37 13.4 °F 12.0 °F 1012.1 in West 4.8 mph 12.9 mph 91 % 0.0 in
22:42 13.4 °F 12.0 °F 1012.4 in SW 3.2 mph 12.9 mph 91 % 0.0 in
22:52 13.4 °F 12.0 °F 1012.4 in WSW 3.2 mph 11.3 mph 91 % 0.0 in
22:57 13.3 °F 11.9 °F 1012.4 in SW 3.2 mph 9.7 mph 91 % 0.0 in
23:02 13.3 °F 12.0 °F 1012.4 in SW 6.4 mph 9.7 mph 92 % 0.0 in
23:07 13.3 °F 12.0 °F 1012.4 in SW 6.4 mph 9.7 mph 92 % 0.0 in
23:12 13.3 °F 12.0 °F 1012.8 in SW 3.2 mph 9.7 mph 92 % 0.0 in
23:17 13.3 °F 11.9 °F 1012.8 in SW 11.3 mph 11.3 mph 91 % 0.0 in
23:22 13.3 °F 11.9 °F 1012.8 in SW 11.3 mph 11.3 mph 91 % 0.0 in
23:32 13.2 °F 11.6 °F 1012.8 in SW 8.0 mph 17.7 mph 90 % 0.0 in
23:37 13.2 °F 11.6 °F 1012.8 in SW 14.5 mph 19.3 mph 90 % 0.0 in
23:42 13.2 °F 11.6 °F 1012.8 in South 6.4 mph 19.3 mph 90 % 0.0 in
23:47 13.1 °F 11.5 °F 1012.8 in WSW 3.2 mph 17.7 mph 90 % 0.0 in
23:52 13.1 °F 11.7 °F 1012.8 in SW 6.4 mph 17.7 mph 91 % 0.0 in
23:57 13.1 °F 11.7 °F 1013.1 in SSW 4.8 mph 17.7 mph 91 % 0.0 in
Meteo18
Compliments of Weather Underground - 4 mb

Script developed by  Jim McMurry - jmcmurry@mwt.net Adapted for the template by  Wim van der Kuil - Leuven-Template.eu

You find our weather info also at:

European Weather Network

Weather Underground

Equipment we use:

Weather-station
Davis Vue

Weather-program
Meteobridge

Weather-server
Raspberry PI 2 B+

Provider
1 and 1

Davis Vue

Meteobridge

Raspberry PI 2 B+

1 and 1